<?xml version="1.0" encoding="UTF-8" standalone="no" ?>
<gpx xmlns="http://www.topografix.com/GPX/1/1" xmlns:xsi="http://www.w3.org/2001/XMLSchema-instance" xsi:schemaLocation="http://www.topografix.com/GPX/1/1 http://www.topografix.com/GPX/1/1/gpx.xsd" version="1.1" creator="VisuGPX - https://www.visugpx.com">
  <metadata>
    <name>Base VRTT Gevaudan Lagogne</name>
  </metadata>
  <trk>
    <name><![CDATA[OR-7914171--Naussac:Site VTT Langogne - Parcours 8 et 9]]></name>
    <extensions>
      <line xmlns="http://www.topografix.com/GPX/gpx_style/0/2">
        <color>FF0000</color>
        <width>4</width>
      </line>
    </extensions>
    <trkseg>
      <trkpt lat="44.73466" lon="3.83518">
        <ele>948</ele>
        <time>2017-12-19T10:38:31Z</time>
      </trkpt>
      <trkpt lat="44.73963" lon="3.83303">
        <ele>945</ele>
        <time>2017-12-19T10:54:31Z</time>
      </trkpt>
      <trkpt lat="44.74051" lon="3.83676">
        <ele>930</ele>
        <time>2017-12-19T11:02:31Z</time>
      </trkpt>
      <trkpt lat="44.73448" lon="3.85706">
        <ele>903</ele>
        <time>2017-12-19T11:56:31Z</time>
      </trkpt>
      <trkpt lat="44.73701" lon="3.85749">
        <ele>905</ele>
        <time>2017-12-19T12:06:31Z</time>
      </trkpt>
      <trkpt lat="44.74487" lon="3.8396">
        <ele>920</ele>
        <time>2017-12-19T12:44:31Z</time>
      </trkpt>
      <trkpt lat="44.74922" lon="3.84071">
        <ele>951</ele>
        <time>2017-12-19T13:06:31Z</time>
      </trkpt>
      <trkpt lat="44.7521" lon="3.84702">
        <ele>1004</ele>
        <time>2017-12-19T13:28:31Z</time>
      </trkpt>
      <trkpt lat="44.74975" lon="3.85496">
        <ele>1013</ele>
        <time>2017-12-19T13:50:31Z</time>
      </trkpt>
      <trkpt lat="44.75025" lon="3.86138">
        <ele>1010</ele>
        <time>2017-12-19T14:08:31Z</time>
      </trkpt>
      <trkpt lat="44.76176" lon="3.88039">
        <ele>1083</ele>
        <time>2017-12-19T15:02:31Z</time>
      </trkpt>
      <trkpt lat="44.76575" lon="3.88393">
        <ele>1114</ele>
        <time>2017-12-19T15:20:31Z</time>
      </trkpt>
      <trkpt lat="44.76927" lon="3.88391">
        <ele>1151</ele>
        <time>2017-12-19T15:40:31Z</time>
      </trkpt>
      <trkpt lat="44.77059" lon="3.88818">
        <ele>1157</ele>
        <time>2017-12-19T15:54:31Z</time>
      </trkpt>
      <trkpt lat="44.76534" lon="3.91375">
        <ele>1287</ele>
        <time>2017-12-19T17:00:31Z</time>
      </trkpt>
      <trkpt lat="44.78256" lon="3.89886">
        <ele>1236</ele>
        <time>2017-12-19T17:48:31Z</time>
      </trkpt>
      <trkpt lat="44.7889" lon="3.90751">
        <ele>1201</ele>
        <time>2017-12-19T18:24:31Z</time>
      </trkpt>
      <trkpt lat="44.79152" lon="3.90719">
        <ele>1216</ele>
        <time>2017-12-19T18:34:31Z</time>
      </trkpt>
      <trkpt lat="44.79152" lon="3.90517">
        <ele>1250</ele>
        <time>2017-12-19T18:40:31Z</time>
      </trkpt>
      <trkpt lat="44.78977" lon="3.90521">
        <ele>1242</ele>
        <time>2017-12-19T18:46:31Z</time>
      </trkpt>
      <trkpt lat="44.79178" lon="3.89972">
        <ele>1256</ele>
        <time>2017-12-19T19:02:31Z</time>
      </trkpt>
      <trkpt lat="44.79306" lon="3.90275">
        <ele>1258</ele>
        <time>2017-12-19T19:12:31Z</time>
      </trkpt>
      <trkpt lat="44.80043" lon="3.9053">
        <ele>1203</ele>
        <time>2017-12-19T19:38:31Z</time>
      </trkpt>
      <trkpt lat="44.81321" lon="3.90487">
        <ele>1237</ele>
        <time>2017-12-19T20:22:31Z</time>
      </trkpt>
      <trkpt lat="44.80947" lon="3.90101">
        <ele>1277</ele>
        <time>2017-12-19T20:40:31Z</time>
      </trkpt>
      <trkpt lat="44.80938" lon="3.89648">
        <ele>1250</ele>
        <time>2017-12-19T20:52:31Z</time>
      </trkpt>
      <trkpt lat="44.80606" lon="3.90009">
        <ele>1228</ele>
        <time>2017-12-19T21:10:31Z</time>
      </trkpt>
      <trkpt lat="44.80262" lon="3.89938">
        <ele>1206</ele>
        <time>2017-12-19T21:24:31Z</time>
      </trkpt>
      <trkpt lat="44.80137" lon="3.90161">
        <ele>1203</ele>
        <time>2017-12-19T21:32:31Z</time>
      </trkpt>
      <trkpt lat="44.799" lon="3.8986">
        <ele>1203</ele>
        <time>2017-12-19T21:44:31Z</time>
      </trkpt>
      <trkpt lat="44.79779" lon="3.8912">
        <ele>1207</ele>
        <time>2017-12-19T22:02:31Z</time>
      </trkpt>
      <trkpt lat="44.79176" lon="3.89376">
        <ele>1248</ele>
        <time>2017-12-19T22:28:31Z</time>
      </trkpt>
      <trkpt lat="44.79382" lon="3.89159">
        <ele>1246</ele>
        <time>2017-12-19T22:38:31Z</time>
      </trkpt>
      <trkpt lat="44.79402" lon="3.88723">
        <ele>1249</ele>
        <time>2017-12-19T22:42:31Z</time>
      </trkpt>
      <trkpt lat="44.78695" lon="3.89425">
        <ele>1262</ele>
        <time>2017-12-19T23:04:31Z</time>
      </trkpt>
      <trkpt lat="44.77859" lon="3.89176">
        <ele>1225</ele>
        <time>2017-12-19T23:34:31Z</time>
      </trkpt>
      <trkpt lat="44.77027" lon="3.88322">
        <ele>1158</ele>
        <time>2017-12-20T00:12:31Z</time>
      </trkpt>
      <trkpt lat="44.76555" lon="3.88386">
        <ele>1112</ele>
        <time>2017-12-20T00:40:31Z</time>
      </trkpt>
      <trkpt lat="44.76011" lon="3.88">
        <ele>1066</ele>
        <time>2017-12-20T01:06:31Z</time>
      </trkpt>
      <trkpt lat="44.7547" lon="3.88185">
        <ele>1028</ele>
        <time>2017-12-20T01:24:31Z</time>
      </trkpt>
      <trkpt lat="44.75123" lon="3.87646">
        <ele>1023</ele>
        <time>2017-12-20T01:44:31Z</time>
      </trkpt>
      <trkpt lat="44.75277" lon="3.86668">
        <ele>1011</ele>
        <time>2017-12-20T02:06:31Z</time>
      </trkpt>
      <trkpt lat="44.75063" lon="3.86307">
        <ele>1009</ele>
        <time>2017-12-20T02:14:31Z</time>
      </trkpt>
      <trkpt lat="44.74149" lon="3.85717">
        <ele>957</ele>
        <time>2017-12-20T02:52:31Z</time>
      </trkpt>
      <trkpt lat="44.73431" lon="3.857">
        <ele>904</ele>
        <time>2017-12-20T03:22:31Z</time>
      </trkpt>
      <trkpt lat="44.73545" lon="3.8553">
        <ele>903</ele>
        <time>2017-12-20T03:28:31Z</time>
      </trkpt>
      <trkpt lat="44.73442" lon="3.85397">
        <ele>913</ele>
        <time>2017-12-20T03:34:31Z</time>
      </trkpt>
      <trkpt lat="44.7406" lon="3.8353">
        <ele>934</ele>
        <time>2017-12-20T04:26:31Z</time>
      </trkpt>
      <trkpt lat="44.7394" lon="3.83307">
        <ele>945</ele>
        <time>2017-12-20T04:34:31Z</time>
      </trkpt>
      <trkpt lat="44.73419" lon="3.83535">
        <ele>950</ele>
        <time>2017-12-20T04:54:31Z</time>
      </trkpt>
    </trkseg>
  </trk>
</gpx>